createdAt,value
2018-08-20T00:02:10.768Z,22.73
2018-08-20T00:04:44.496Z,17.67
2018-08-20T00:07:12.749Z,20.67
2018-08-20T00:09:46.633Z,22.23
2018-08-20T00:12:16.488Z,21.47
2018-08-20T00:14:44.753Z,19.43
2018-08-20T00:17:13.563Z,21.13
2018-08-20T00:19:42.079Z,18.97
2018-08-20T00:22:10.503Z,18.23
2018-08-20T00:24:38.900Z,19.70
2018-08-20T00:27:07.172Z,17.13
2018-08-20T00:29:37.483Z,20.70
2018-08-20T00:32:05.764Z,16.90
2018-08-20T00:34:33.999Z,19.10
2018-08-20T00:37:02.232Z,22.03
2018-08-20T00:39:30.790Z,20.20
2018-08-20T00:41:59.412Z,21.00
2018-08-20T00:44:27.695Z,20.70
2018-08-20T00:46:56.160Z,17.57
2018-08-20T00:49:24.432Z,22.27
2018-08-20T00:51:52.659Z,21.40
2018-08-20T00:54:20.988Z,19.77
2018-08-20T00:56:49.258Z,19.03
2018-08-20T00:59:17.547Z,21.57
2018-08-20T01:01:45.897Z,21.20
2018-08-20T01:04:14.145Z,20.73
2018-08-20T01:06:42.371Z,17.43
2018-08-20T01:09:10.603Z,19.47
2018-08-20T01:11:38.887Z,18.43
2018-08-20T01:14:07.085Z,18.00
2018-08-20T01:16:35.341Z,20.30
2018-08-20T01:19:03.601Z,23.77
2018-08-20T01:21:31.825Z,18.73
2018-08-20T01:24:00.350Z,16.27
2018-08-20T01:26:28.580Z,23.03
2018-08-20T01:28:56.796Z,19.30
2018-08-20T01:31:25.028Z,15.67
2018-08-20T01:33:53.776Z,15.80
2018-08-20T01:36:21.989Z,18.60
2018-08-20T01:38:50.343Z,15.37
2018-08-20T01:41:18.607Z,19.67
2018-08-20T01:43:46.819Z,16.63
2018-08-20T01:46:15.077Z,13.73
2018-08-20T01:48:43.279Z,17.73
2018-08-20T01:51:11.547Z,14.37
2018-08-20T01:53:39.744Z,18.50
2018-08-20T01:56:08.220Z,15.30
2018-08-20T01:58:36.440Z,13.67
2018-08-20T02:01:04.715Z,16.20
2018-08-20T02:03:32.935Z,13.30
2018-08-20T02:06:01.131Z,14.47
2018-08-20T02:08:29.363Z,13.63
2018-08-20T02:10:57.580Z,12.80
2018-08-20T02:13:25.883Z,17.73
2018-08-20T02:15:54.214Z,13.17
2018-08-20T02:18:22.395Z,11.00
2018-08-20T02:20:50.603Z,12.50
2018-08-20T02:23:18.819Z,14.87
2018-08-20T02:25:47.015Z,17.63
2018-08-20T02:28:15.246Z,14.17
2018-08-20T02:30:43.467Z,14.17
2018-08-20T02:33:11.675Z,19.43
2018-08-20T02:35:39.959Z,14.57
2018-08-20T02:38:08.192Z,18.47
2018-08-20T02:40:36.395Z,13.93
2018-08-20T02:43:04.648Z,13.30
2018-08-20T02:45:32.855Z,15.03
2018-08-20T02:48:01.101Z,24.40
2018-08-20T02:50:29.287Z,14.37
2018-08-20T02:52:57.475Z,14.47
2018-08-20T02:55:25.724Z,17.57
2018-08-20T02:57:53.928Z,15.80
2018-08-20T03:00:22.200Z,15.97
2018-08-20T03:02:50.431Z,21.77
2018-08-20T03:05:19.869Z,20.30
2018-08-20T03:07:48.081Z,16.17
2018-08-20T03:10:16.309Z,16.10
2018-08-20T03:12:44.488Z,17.23
2018-08-20T03:15:12.718Z,15.67
2018-08-20T03:17:40.943Z,16.83
2018-08-20T03:20:09.151Z,18.03
2018-08-20T03:22:37.372Z,19.13
2018-08-20T03:25:06.187Z,16.43
2018-08-20T03:27:34.367Z,17.20
2018-08-20T03:30:02.740Z,19.50
2018-08-20T03:32:31.784Z,16.00
2018-08-20T03:34:59.982Z,19.30
2018-08-20T03:37:28.384Z,14.87
2018-08-20T03:39:56.594Z,18.27
2018-08-20T03:42:24.859Z,16.87
2018-08-20T03:44:53.128Z,17.90
2018-08-20T03:47:21.551Z,19.10
2018-08-20T03:49:50.116Z,22.13
2018-08-20T03:52:18.349Z,16.83
2018-08-20T03:54:46.531Z,17.77
2018-08-20T03:57:14.856Z,25.23
2018-08-20T03:59:43.081Z,15.27
2018-08-20T04:02:12.097Z,16.97
2018-08-20T04:04:40.373Z,16.00
2018-08-20T04:07:08.659Z,20.13
2018-08-20T04:09:36.900Z,21.80
2018-08-20T04:12:05.435Z,22.73
2018-08-20T04:14:33.662Z,19.10
2018-08-20T04:17:01.870Z,18.20
2018-08-20T04:19:30.539Z,18.53
2018-08-20T04:21:58.850Z,22.43
2018-08-20T04:24:27.082Z,17.13
2018-08-20T04:26:55.276Z,26.53
2018-08-20T04:29:23.547Z,17.43
2018-08-20T04:31:51.731Z,20.03
2018-08-20T04:34:19.959Z,17.43
2018-08-20T04:36:48.218Z,21.43
2018-08-20T04:39:16.840Z,20.87
2018-08-20T04:41:45.059Z,18.37
2018-08-20T04:44:13.304Z,21.37
2018-08-20T04:46:41.491Z,22.33
2018-08-20T04:49:09.691Z,21.97
2018-08-20T04:51:37.909Z,20.17
2018-08-20T04:54:06.820Z,24.70
2018-08-20T04:56:35.029Z,23.17
2018-08-20T04:59:03.260Z,22.43
2018-08-20T05:01:31.589Z,21.03
2018-08-20T05:03:59.793Z,25.03
2018-08-20T05:06:28.000Z,19.33
2018-08-20T05:08:56.217Z,22.63
2018-08-20T05:11:24.423Z,25.43
2018-08-20T05:13:52.619Z,19.40
2018-08-20T05:16:20.930Z,21.00
2018-08-20T05:18:49.194Z,21.80
2018-08-20T05:21:18.125Z,22.97
2018-08-20T05:23:46.387Z,25.37
2018-08-20T05:26:14.633Z,21.67
2018-08-20T05:28:42.831Z,27.63
2018-08-20T05:31:11.113Z,26.37
2018-08-20T05:33:39.381Z,27.90
2018-08-20T05:36:07.559Z,24.57
2018-08-20T05:38:35.747Z,27.40
2018-08-20T05:41:04.011Z,24.40
2018-08-20T05:43:32.254Z,25.00
2018-08-20T05:46:00.517Z,27.87
2018-08-20T05:48:28.725Z,28.00
2018-08-20T05:50:56.920Z,26.80
2018-08-20T05:53:25.131Z,29.50
2018-08-20T05:55:53.351Z,29.87
2018-08-20T05:58:21.565Z,27.20
2018-08-20T06:00:49.809Z,25.97
2018-08-20T06:03:18.016Z,30.83
2018-08-20T06:05:46.284Z,33.07
2018-08-20T06:08:14.436Z,23.63
2018-08-20T06:10:42.646Z,33.87
2018-08-20T06:13:11.603Z,30.93
2018-08-20T06:15:39.800Z,34.57
2018-08-20T06:18:08.180Z,36.53
2018-08-20T06:20:36.408Z,31.17
2018-08-20T06:23:04.742Z,37.97
2018-08-20T06:25:32.982Z,35.40
2018-08-20T06:28:01.202Z,38.63
2018-08-20T06:30:29.429Z,34.07
2018-08-20T06:32:57.706Z,36.80
2018-08-20T06:35:25.912Z,43.07
2018-08-20T06:37:54.232Z,37.83
2018-08-20T06:40:22.440Z,38.43
2018-08-20T06:42:50.660Z,37.70
2018-08-20T06:45:19.112Z,41.27
2018-08-20T06:47:47.641Z,38.43
2018-08-20T06:50:16.387Z,45.03
2018-08-20T06:52:45.347Z,40.83
2018-08-20T06:55:14.775Z,39.53
2018-08-20T06:57:43.973Z,47.27
2018-08-20T07:00:12.360Z,39.40
2018-08-20T07:02:40.592Z,39.17
2018-08-20T07:05:09.156Z,40.13
2018-08-20T07:07:38.720Z,44.43
2018-08-20T07:10:11.540Z,41.07
2018-08-20T07:12:39.813Z,41.53
2018-08-20T07:15:09.279Z,42.83
2018-08-20T07:17:37.537Z,38.63
2018-08-20T07:20:07.663Z,40.00
2018-08-20T07:22:35.860Z,42.80
2018-08-20T07:25:04.732Z,42.17
2018-08-20T07:27:33.154Z,39.07
2018-08-20T07:30:01.403Z,38.43
2018-08-20T07:32:29.590Z,45.00
2018-08-20T07:34:57.868Z,40.27
2018-08-20T07:37:26.131Z,40.33
2018-08-20T07:39:54.402Z,44.50
2018-08-20T07:42:22.686Z,45.83
2018-08-20T07:44:50.868Z,46.97
2018-08-20T07:47:19.219Z,44.33
2018-08-20T07:49:47.660Z,45.33
2018-08-20T07:52:15.937Z,45.73
2018-08-20T07:54:44.150Z,46.97
2018-08-20T07:57:12.464Z,42.07
2018-08-20T07:59:40.825Z,49.70
2018-08-20T08:02:09.108Z,55.37
2018-08-20T08:04:37.355Z,55.97
2018-08-20T08:07:05.694Z,63.73
2018-08-20T08:09:34.217Z,64.40
2018-08-20T08:12:02.440Z,65.83
2018-08-20T08:14:30.731Z,66.47
2018-08-20T08:16:58.988Z,68.30
2018-08-20T08:19:27.309Z,66.17
2018-08-20T08:21:55.523Z,70.23
2018-08-20T08:24:23.800Z,76.77
2018-08-20T08:26:52.061Z,81.50
2018-08-20T08:29:20.271Z,70.97
2018-08-20T08:31:48.514Z,75.53
2018-08-20T08:34:16.826Z,71.40
2018-08-20T08:36:45.080Z,74.00
2018-08-20T08:39:13.299Z,73.63
2018-08-20T08:41:41.639Z,73.47
2018-08-20T08:44:10.344Z,75.27
2018-08-20T08:46:38.588Z,80.07
2018-08-20T08:49:06.790Z,83.83
2018-08-20T08:51:34.989Z,76.20
2018-08-20T08:54:03.215Z,80.20
2018-08-20T08:56:31.419Z,79.03
2018-08-20T08:58:59.666Z,78.93
2018-08-20T09:01:27.914Z,75.70
2018-08-20T09:03:56.160Z,78.03
2018-08-20T09:06:24.381Z,75.90
2018-08-20T09:08:52.579Z,76.77
2018-08-20T09:11:21.280Z,78.13
2018-08-20T09:13:49.558Z,74.50
2018-08-20T09:16:17.779Z,79.67
2018-08-20T09:18:45.983Z,72.10
2018-08-20T09:21:14.356Z,71.83
2018-08-20T09:23:42.571Z,84.13
2018-08-20T09:26:10.788Z,80.37
2018-08-20T09:28:39.080Z,76.77
2018-08-20T09:31:07.363Z,72.97
2018-08-20T09:33:35.576Z,81.63
2018-08-20T09:36:03.920Z,74.30
2018-08-20T09:38:32.124Z,73.30
2018-08-20T09:41:00.387Z,77.60
2018-08-20T09:43:28.677Z,81.00
2018-08-20T09:45:56.916Z,73.60
2018-08-20T09:48:25.140Z,80.03
2018-08-20T09:50:53.373Z,84.30
2018-08-20T09:53:21.706Z,86.00
2018-08-20T09:55:49.835Z,71.57
2018-08-20T09:58:18.072Z,77.27
2018-08-20T10:00:46.397Z,80.93
2018-08-20T10:03:14.652Z,80.27
2018-08-20T10:05:42.855Z,76.50
2018-08-20T10:08:11.097Z,78.73
2018-08-20T10:10:39.355Z,79.73
2018-08-20T10:13:07.581Z,72.00
2018-08-20T10:15:35.835Z,75.53
2018-08-20T10:18:04.055Z,74.80
2018-08-20T10:20:32.316Z,72.13
2018-08-20T10:23:00.544Z,71.37
2018-08-20T10:25:28.962Z,75.97
2018-08-20T10:27:57.219Z,74.67
2018-08-20T10:30:25.447Z,71.53
2018-08-20T10:32:53.668Z,72.83
2018-08-20T10:35:21.895Z,68.53
2018-08-20T10:37:50.164Z,67.57
2018-08-20T10:40:18.382Z,77.17
2018-08-20T10:42:46.587Z,69.07
2018-08-20T10:45:16.763Z,66.17
2018-08-20T10:47:46.347Z,67.53
2018-08-20T10:50:15.540Z,75.73
2018-08-20T10:52:45.132Z,67.50
2018-08-20T10:55:13.383Z,73.83
2018-08-20T10:57:42.056Z,69.80
2018-08-20T11:00:11.027Z,63.40
2018-08-20T11:02:39.364Z,60.77
2018-08-20T11:05:10.136Z,60.70
2018-08-20T11:07:38.436Z,69.73
2018-08-20T11:10:06.763Z,70.43
2018-08-20T11:12:34.952Z,65.57
2018-08-20T11:15:03.202Z,55.60
2018-08-20T11:17:31.449Z,54.00
2018-08-20T11:19:59.656Z,58.63
2018-08-20T11:22:27.855Z,56.10
2018-08-20T11:24:56.108Z,54.17
2018-08-20T11:27:24.399Z,51.90
2018-08-20T11:29:52.614Z,56.50
2018-08-20T11:32:20.877Z,45.70
2018-08-20T11:34:49.119Z,51.77
2018-08-20T11:37:17.330Z,44.57
2018-08-20T11:39:45.528Z,43.43
2018-08-20T11:42:13.875Z,39.10
2018-08-20T11:44:42.126Z,44.77
2018-08-20T11:47:10.408Z,52.83
2018-08-20T11:49:38.651Z,48.60
2018-08-20T11:52:06.929Z,51.13
2018-08-20T11:54:35.128Z,48.50
2018-08-20T11:57:03.539Z,49.20
2018-08-20T11:59:31.766Z,51.40
2018-08-20T12:02:00.477Z,48.60
2018-08-20T12:04:28.584Z,54.27
2018-08-20T12:06:56.841Z,49.97
2018-08-20T12:09:24.995Z,45.50
2018-08-20T12:11:53.291Z,40.73
2018-08-20T12:14:21.526Z,42.00
2018-08-20T12:16:49.767Z,46.30
2018-08-20T12:19:18.020Z,49.27
2018-08-20T12:21:46.256Z,44.30
2018-08-20T12:24:14.449Z,45.10
2018-08-20T12:26:42.756Z,48.53
2018-08-20T12:29:11.089Z,45.27
2018-08-20T12:31:39.279Z,44.07
2018-08-20T12:34:07.583Z,47.37
2018-08-20T12:36:36.139Z,46.13
2018-08-20T12:39:05.677Z,49.10
2018-08-20T12:41:33.951Z,56.03
2018-08-20T12:44:02.305Z,59.57
2018-08-20T12:46:30.512Z,56.03
2018-08-20T12:48:58.733Z,60.73
2018-08-20T12:51:26.999Z,54.63
2018-08-20T12:53:55.209Z,50.53
2018-08-20T12:56:23.421Z,42.97
2018-08-20T12:58:52.861Z,42.37
2018-08-20T13:01:21.091Z,38.07
2018-08-20T13:03:49.989Z,38.10
2018-08-20T13:06:18.230Z,43.00
2018-08-20T13:08:47.484Z,45.60
2018-08-20T13:11:16.017Z,44.83
2018-08-20T13:13:44.576Z,41.63
2018-08-20T13:16:12.909Z,36.47
2018-08-20T13:18:40.979Z,39.97
2018-08-20T13:21:09.237Z,36.63
2018-08-20T13:23:37.535Z,37.20
2018-08-20T13:26:05.964Z,31.27
2018-08-20T13:28:34.212Z,36.77
2018-08-20T13:31:02.865Z,33.77
2018-08-20T13:33:31.172Z,30.03
2018-08-20T13:35:59.420Z,31.23
2018-08-20T13:38:27.790Z,25.03
2018-08-20T13:40:55.975Z,30.90
2018-08-20T13:43:24.354Z,30.27
2018-08-20T13:45:52.559Z,27.30
2018-08-20T13:48:20.853Z,29.23
2018-08-20T13:50:49.084Z,26.53
2018-08-20T13:53:17.316Z,30.50
2018-08-20T13:55:45.735Z,28.47
2018-08-20T13:58:14.077Z,28.77
2018-08-20T14:00:42.381Z,28.57
2018-08-20T14:03:10.596Z,29.87
2018-08-20T14:05:38.799Z,30.20
2018-08-20T14:08:07.242Z,26.67
2018-08-20T14:10:35.712Z,29.07
2018-08-20T14:13:04.318Z,21.57
2018-08-20T14:15:32.687Z,21.07
2018-08-20T14:18:00.986Z,18.47
2018-08-20T14:20:29.260Z,18.57
2018-08-20T14:22:57.488Z,17.23
2018-08-20T14:25:25.736Z,16.10
2018-08-20T14:27:53.984Z,18.30
2018-08-20T14:30:22.355Z,16.50
2018-08-20T14:32:50.694Z,14.10
2018-08-20T14:35:19.302Z,15.03
2018-08-20T14:37:47.581Z,15.30
2018-08-20T14:40:18.411Z,16.30
2018-08-20T14:42:46.680Z,18.77
2018-08-20T14:45:16.019Z,18.17
2018-08-20T14:47:44.944Z,14.50
2018-08-20T14:50:15.183Z,11.33
2018-08-20T14:52:43.493Z,13.37
2018-08-20T14:55:12.185Z,14.07
2018-08-20T14:57:40.410Z,14.67
2018-08-20T15:00:11.189Z,12.67
2018-08-20T15:02:39.463Z,14.63
2018-08-20T15:05:07.863Z,14.07
2018-08-20T15:07:36.400Z,12.47
2018-08-20T15:10:05.727Z,12.70
2018-08-20T15:12:33.983Z,15.70
2018-08-20T15:15:02.270Z,10.00
2018-08-20T15:17:30.464Z,13.57
2018-08-20T15:19:58.721Z,10.73
2018-08-20T15:22:26.948Z,10.50
2018-08-20T15:24:55.295Z,9.13
2018-08-20T15:27:23.566Z,10.07
2018-08-20T15:29:51.972Z,9.57
2018-08-20T15:32:20.286Z,9.50
2018-08-20T15:34:48.489Z,10.33
2018-08-20T15:37:16.750Z,8.00
2018-08-20T15:39:44.961Z,9.63
2018-08-20T15:42:13.204Z,7.93
2018-08-20T15:44:41.474Z,10.57
2018-08-20T15:47:09.696Z,11.00
2018-08-20T15:49:37.935Z,12.50
2018-08-20T15:52:06.141Z,9.00
2018-08-20T15:54:34.677Z,8.37
2018-08-20T15:57:03.023Z,8.77
2018-08-20T15:59:31.268Z,6.80
2018-08-20T16:01:59.508Z,7.37
2018-08-20T16:04:27.755Z,7.57
2018-08-20T16:06:56.006Z,7.53
2018-08-20T16:09:24.239Z,6.53
2018-08-20T16:11:52.588Z,6.83
2018-08-20T16:14:20.803Z,8.83
2018-08-20T16:16:49.112Z,8.33
2018-08-20T16:19:17.420Z,8.70
2018-08-20T16:21:45.717Z,6.83
2018-08-20T16:24:13.916Z,6.17
2018-08-20T16:26:42.430Z,5.43
2018-08-20T16:29:10.679Z,5.37
2018-08-20T16:31:38.929Z,6.10
2018-08-20T16:34:07.155Z,7.17
2018-08-20T16:36:35.484Z,5.30
2018-08-20T16:39:05.171Z,6.40
2018-08-20T16:41:33.416Z,4.63
2018-08-20T16:44:01.775Z,5.60
2018-08-20T16:46:29.950Z,9.10
2018-08-20T16:48:58.238Z,4.23
2018-08-20T16:51:26.465Z,5.83
2018-08-20T16:53:54.719Z,5.23
2018-08-20T16:56:22.979Z,6.27
2018-08-20T16:58:51.228Z,7.03
2018-08-20T17:01:19.817Z,5.73
2018-08-20T17:03:48.071Z,4.57
2018-08-20T17:06:16.307Z,3.83
2018-08-20T17:08:45.057Z,6.67
2018-08-20T17:11:14.045Z,3.27
2018-08-20T17:13:42.419Z,2.90
2018-08-20T17:16:13.584Z,2.60
2018-08-20T17:18:41.964Z,4.53
2018-08-20T17:21:10.287Z,3.07
2018-08-20T17:23:38.508Z,2.30
2018-08-20T17:26:07.374Z,3.97
2018-08-20T17:28:35.654Z,2.73
2018-08-20T17:31:07.643Z,3.20
2018-08-20T17:33:36.356Z,3.87
2018-08-20T17:36:07.370Z,2.90
2018-08-20T17:38:35.586Z,3.90
2018-08-20T17:41:03.803Z,3.30
2018-08-20T17:43:32.088Z,2.57
2018-08-20T17:46:00.288Z,2.37
2018-08-20T17:48:31.523Z,2.23
2018-08-20T17:51:00.015Z,4.17
2018-08-20T17:53:39.736Z,3.23
2018-08-20T17:56:08.028Z,2.37
2018-08-20T17:58:36.280Z,3.03
2018-08-20T18:01:04.810Z,2.43
2018-08-20T18:03:33.583Z,2.73
2018-08-20T18:06:03.900Z,1.97
2018-08-20T18:08:33.044Z,2.10
2018-08-20T18:11:01.654Z,1.50
2018-08-20T18:13:49.671Z,4.37
2018-08-20T18:16:19.255Z,3.20
2018-08-20T18:18:48.735Z,2.03
2018-08-20T18:21:17.092Z,1.87
2018-08-20T18:23:45.283Z,2.10
2018-08-20T18:26:13.501Z,2.87
2018-08-20T18:28:47.109Z,1.93
2018-08-20T18:31:17.592Z,2.70
2018-08-20T18:33:45.844Z,2.70
2018-08-20T18:36:14.916Z,1.60
2018-08-20T18:38:53.274Z,1.53
2018-08-20T18:41:25.768Z,2.27
2018-08-20T18:43:53.970Z,3.07
2018-08-20T18:46:22.148Z,3.27
2018-08-20T18:48:50.336Z,2.27
2018-08-20T18:51:18.833Z,3.27
2018-08-20T18:53:47.045Z,2.67
2018-08-20T18:56:17.108Z,3.87
2018-08-20T18:58:45.524Z,3.03
2018-08-20T19:01:13.814Z,2.00
2018-08-20T19:03:48.358Z,1.77
2018-08-20T19:06:17.200Z,1.93
2018-08-20T19:08:45.453Z,1.93
2018-08-20T19:11:14.027Z,1.83
2018-08-20T19:13:43.001Z,2.40
2018-08-20T19:16:35.983Z,1.67
2018-08-20T19:19:04.858Z,2.43
2018-08-20T19:21:37.584Z,2.07
2018-08-20T19:24:06.732Z,2.00
2018-08-20T19:26:34.944Z,1.70
2018-08-20T19:29:18.178Z,2.77
2018-08-20T19:31:46.376Z,2.30
2018-08-20T19:34:14.668Z,1.70
2018-08-20T19:36:42.878Z,2.87
2018-08-20T19:39:11.081Z,3.70
2018-08-20T19:41:39.283Z,2.20
2018-08-20T19:44:08.419Z,1.70
2018-08-20T19:46:37.483Z,1.97
2018-08-20T19:49:14.088Z,2.57
2018-08-20T19:51:43.396Z,2.90
2018-08-20T19:54:13.780Z,2.07
2018-08-20T19:56:42.029Z,2.20
2018-08-20T19:59:10.752Z,1.60
2018-08-20T20:01:39.071Z,4.67
2018-08-20T20:04:07.982Z,2.70
2018-08-20T20:06:36.227Z,1.40
2018-08-20T20:09:07.691Z,1.63
2018-08-20T20:11:41.148Z,3.17
2018-08-20T20:14:09.395Z,2.80
2018-08-20T20:16:43.040Z,1.57
2018-08-20T20:19:11.713Z,2.13
2018-08-20T20:21:39.986Z,2.07
2018-08-20T20:24:08.899Z,1.40
2018-08-20T20:26:37.127Z,3.07
2018-08-20T20:29:06.740Z,1.10
2018-08-20T20:31:34.934Z,4.97
2018-08-20T20:34:03.190Z,1.40
2018-08-20T20:36:32.303Z,2.50
2018-08-20T20:39:00.816Z,2.17
2018-08-20T20:41:29.098Z,3.13
2018-08-20T20:43:57.323Z,4.00
2018-08-20T20:46:25.518Z,1.50
2018-08-20T20:48:54.020Z,2.60
2018-08-20T20:51:22.260Z,1.20
2018-08-20T20:53:50.487Z,0.83
2018-08-20T20:56:18.768Z,2.10
2018-08-20T20:58:46.992Z,2.10
2018-08-20T21:01:15.386Z,3.97
2018-08-20T21:03:43.533Z,1.97
2018-08-20T21:06:11.775Z,1.30
2018-08-20T21:08:44.210Z,1.10
2018-08-20T21:11:13.619Z,1.53
2018-08-20T21:13:42.377Z,2.40
2018-08-20T21:16:11.819Z,1.40
2018-08-20T21:18:48.323Z,5.00
2018-08-20T21:21:17.827Z,2.00
2018-08-20T21:23:46.069Z,1.70
2018-08-20T21:26:14.355Z,2.07
2018-08-20T21:28:46.747Z,3.60
2018-08-20T21:31:16.095Z,2.60
2018-08-20T21:33:44.919Z,2.40
2018-08-20T21:36:13.697Z,1.47
2018-08-20T21:38:42.187Z,2.90
2018-08-20T21:41:10.397Z,2.67
2018-08-20T21:43:45.440Z,1.23
2018-08-20T21:46:13.815Z,2.13
2018-08-20T21:48:42.460Z,2.70
2018-08-20T21:51:14.029Z,1.30
2018-08-20T21:53:42.232Z,1.57
2018-08-20T21:56:11.487Z,1.90
2018-08-20T21:58:41.791Z,1.60
2018-08-20T22:01:11.562Z,2.87
2018-08-20T22:03:40.332Z,1.83
2018-08-20T22:06:08.959Z,1.50
2018-08-20T22:08:37.291Z,2.23
2018-08-20T22:11:05.598Z,1.43
2018-08-20T22:13:33.911Z,1.33
2018-08-20T22:16:19.104Z,1.50
2018-08-20T22:18:51.759Z,1.80
2018-08-20T22:21:19.985Z,2.50
2018-08-20T22:23:48.235Z,1.80
2018-08-20T22:26:17.963Z,1.70
2018-08-20T22:28:48.696Z,2.50
2018-08-20T22:31:17.060Z,1.60
2018-08-20T22:33:54.872Z,3.87
2018-08-20T22:36:23.228Z,2.37
2018-08-20T22:38:52.756Z,1.83
2018-08-20T22:41:22.047Z,1.93
2018-08-20T22:43:50.670Z,4.23
2018-08-20T22:46:19.726Z,2.80
2018-08-20T22:48:50.261Z,2.97
2018-08-20T22:51:19.055Z,1.93
2018-08-20T22:53:51.525Z,2.10
2018-08-20T22:56:35.476Z,1.60
2018-08-20T22:59:05.291Z,2.17
2018-08-20T23:01:33.479Z,2.00
2018-08-20T23:04:01.697Z,2.50
2018-08-20T23:06:30.155Z,2.30
2018-08-20T23:08:58.397Z,2.70
2018-08-20T23:11:39.270Z,2.37
2018-08-20T23:14:09.089Z,2.00
2018-08-20T23:16:37.769Z,2.10
2018-08-20T23:19:06.035Z,2.50
2018-08-20T23:21:38.521Z,2.23
2018-08-20T23:24:07.096Z,1.70
2018-08-20T23:26:35.333Z,1.97
2018-08-20T23:29:04.525Z,4.77
2018-08-20T23:31:32.731Z,2.27
2018-08-20T23:34:01.008Z,2.10
2018-08-20T23:36:29.384Z,2.17
2018-08-20T23:38:57.624Z,2.13
2018-08-20T23:41:25.836Z,2.93
2018-08-20T23:43:58.969Z,3.43
2018-08-20T23:46:36.240Z,2.80
2018-08-20T23:49:05.714Z,2.80
2018-08-20T23:51:34.013Z,3.27
2018-08-20T23:54:02.359Z,2.93
2018-08-20T23:56:30.617Z,2.80
2018-08-20T23:58:59.329Z,2.47
